createdAt,value
2019-02-05T00:00:29.734Z,29.5
2019-02-05T00:01:17.169Z,29.5
2019-02-05T00:02:08.046Z,29.5
2019-02-05T00:02:57.249Z,29.5
2019-02-05T00:03:48.191Z,29.5
2019-02-05T00:04:36.612Z,29.5
2019-02-05T00:05:27.989Z,29.5
2019-02-05T00:06:18.190Z,29.5
2019-02-05T00:07:07.830Z,29.5
2019-02-05T00:07:58.426Z,29.5
2019-02-05T00:08:48.506Z,29.4
2019-02-05T00:09:40.836Z,29.4
2019-02-05T00:10:27.852Z,29.4
2019-02-05T00:11:17.828Z,29.4
2019-02-05T00:12:08.270Z,29.4
2019-02-05T00:12:58.056Z,29.4
2019-02-05T00:13:47.833Z,29.4
2019-02-05T00:14:38.696Z,29.4
2019-02-05T00:15:29.083Z,29.4
2019-02-05T00:16:18.842Z,29.4
2019-02-05T00:17:08.863Z,29.4
2019-02-05T00:17:58.113Z,29.4
2019-02-05T00:18:52.480Z,29.4
2019-02-05T00:19:38.711Z,29.4
2019-02-05T00:20:28.853Z,29.4
2019-02-05T00:21:18.563Z,29.4
2019-02-05T00:22:08.615Z,29.4
2019-02-05T00:22:58.470Z,29.4
2019-02-05T00:23:48.837Z,29.4
2019-02-05T00:24:40.075Z,29.4
2019-02-05T00:25:28.855Z,29.4
2019-02-05T00:26:19.740Z,29.4
2019-02-05T00:27:10.078Z,29.4
2019-02-05T00:28:02.465Z,29.4
2019-02-05T00:28:49.915Z,29.4
2019-02-05T00:29:39.530Z,29.4
2019-02-05T00:30:29.504Z,29.4
2019-02-05T00:31:19.915Z,29.4
2019-02-05T00:32:09.600Z,29.4
2019-02-05T00:32:59.715Z,29.4
2019-02-05T00:33:50.170Z,29.4
2019-02-05T00:34:39.520Z,29.4
2019-02-05T00:35:30.114Z,29.4
2019-02-05T00:36:19.594Z,29.4
2019-02-05T00:37:12.577Z,29.4
2019-02-05T00:38:00.276Z,29.4
2019-02-05T00:38:50.350Z,29.4
2019-02-05T00:39:40.114Z,29.4
2019-02-05T00:40:30.734Z,29.4
2019-02-05T00:41:20.791Z,29.4
2019-02-05T00:42:10.559Z,29.4
2019-02-05T00:43:00.779Z,29.4
2019-02-05T00:43:50.964Z,29.4
2019-02-05T00:44:40.559Z,29.4
2019-02-05T00:45:31.084Z,29.3
2019-02-05T00:46:22.006Z,29.4
2019-02-05T00:47:10.711Z,29.4
2019-02-05T00:48:01.086Z,29.4
2019-02-05T00:48:51.024Z,29.4
2019-02-05T00:49:41.368Z,29.4
2019-02-05T00:50:31.166Z,29.4
2019-02-05T00:51:21.471Z,29.3
2019-02-05T00:52:12.271Z,29.4
2019-02-05T00:53:01.068Z,29.4
2019-02-05T00:53:51.954Z,29.3
2019-02-05T00:54:41.306Z,29.3
2019-02-05T00:55:33.093Z,29.3
2019-02-05T00:56:24.040Z,29.4
2019-02-05T00:57:11.905Z,29.3
2019-02-05T00:58:01.431Z,29.3
2019-02-05T00:58:52.008Z,29.3
2019-02-05T00:59:41.845Z,29.3
2019-02-05T01:00:32.221Z,29.3
2019-02-05T01:01:23.013Z,29.3
2019-02-05T01:02:11.985Z,29.3
2019-02-05T01:03:02.498Z,29.3
2019-02-05T01:03:52.026Z,29.3
2019-02-05T01:04:45.120Z,29.3
2019-02-05T01:05:32.510Z,29.3
2019-02-05T01:06:22.540Z,29.3
2019-02-05T01:07:12.588Z,29.3
2019-02-05T01:08:02.955Z,29.3
2019-02-05T01:08:52.735Z,29.3
2019-02-05T01:09:42.235Z,29.3
2019-02-05T01:10:34.105Z,29.3
2019-02-05T01:11:23.292Z,29.3
2019-02-05T01:12:12.675Z,29.3
2019-02-05T01:13:02.398Z,29.3
2019-02-05T01:13:54.666Z,29.3
2019-02-05T01:14:42.314Z,29.3
2019-02-05T01:15:32.192Z,29.3
2019-02-05T01:16:23.379Z,29.3
2019-02-05T01:17:12.507Z,29.3
2019-02-05T01:18:03.389Z,29.3
2019-02-05T01:18:53.414Z,29.3
2019-02-05T01:19:43.977Z,29.3
2019-02-05T01:20:33.536Z,29.3
2019-02-05T01:21:23.331Z,29.3
2019-02-05T01:22:13.943Z,29.3
2019-02-05T01:23:05.232Z,29.3
2019-02-05T01:23:53.496Z,29.3
2019-02-05T01:24:43.836Z,29.3
2019-02-05T01:25:34.026Z,29.3
2019-02-05T01:26:37.146Z,29.3
2019-02-05T01:27:12.926Z,29.3
2019-02-05T01:28:04.089Z,29.3
2019-02-05T01:28:55.235Z,29.3
2019-02-05T01:29:44.218Z,29.3
2019-02-05T01:30:34.291Z,29.3
2019-02-05T01:31:24.586Z,29.3
2019-02-05T01:32:17.091Z,29.3
2019-02-05T01:33:04.541Z,29.3
2019-02-05T01:33:54.216Z,29.3
2019-02-05T01:34:44.551Z,29.3
2019-02-05T01:35:34.323Z,29.2
2019-02-05T01:36:24.166Z,29.2
2019-02-05T01:37:14.818Z,29.2
2019-02-05T01:38:05.006Z,29.2
2019-02-05T01:38:54.313Z,29.2
2019-02-05T01:39:44.128Z,29.2
2019-02-05T01:40:34.968Z,29.2
2019-02-05T01:41:27.595Z,29.2
2019-02-05T01:42:13.967Z,29.2
2019-02-05T01:43:04.673Z,29.2
2019-02-05T01:43:53.863Z,29.2
2019-02-05T01:44:44.832Z,29.2
2019-02-05T01:45:35.015Z,29.2
2019-02-05T01:46:25.382Z,29.2
2019-02-05T01:47:15.518Z,29.2
2019-02-05T01:48:04.190Z,29.2
2019-02-05T01:48:55.568Z,29.2
2019-02-05T01:49:45.355Z,29.2
2019-02-05T01:50:37.167Z,29.2
2019-02-05T01:51:25.698Z,29.2
2019-02-05T01:52:15.047Z,29.2
2019-02-05T01:53:05.064Z,29.2
2019-02-05T01:53:55.622Z,29.2
2019-02-05T01:54:45.409Z,29.2
2019-02-05T01:55:35.817Z,29.2
2019-02-05T01:56:26.104Z,29.2
2019-02-05T01:57:16.114Z,29.1
2019-02-05T01:58:05.666Z,29.2
2019-02-05T01:58:55.994Z,29.2
2019-02-05T01:59:48.274Z,29.2
2019-02-05T02:00:37.009Z,29.2
2019-02-05T02:01:26.431Z,29.2
2019-02-05T02:02:15.119Z,29.2
2019-02-05T02:03:06.844Z,29.3
2019-02-05T02:03:56.343Z,29.3
2019-02-05T02:04:46.455Z,29.3
2019-02-05T02:05:37.868Z,29.3
2019-02-05T02:06:26.036Z,29.4
2019-02-05T02:07:16.393Z,29.4
2019-02-05T02:08:06.498Z,29.4
2019-02-05T02:08:57.875Z,29.5
2019-02-05T02:09:46.271Z,29.6
2019-02-05T02:10:36.708Z,29.6
2019-02-05T02:11:26.413Z,29.7
2019-02-05T02:12:17.448Z,29.8
2019-02-05T02:13:06.568Z,29.9
2019-02-05T02:13:57.280Z,29.9
2019-02-05T02:14:49.331Z,30
2019-02-05T02:15:37.414Z,30.1
2019-02-05T02:16:27.507Z,30.2
2019-02-05T02:17:17.255Z,30.3
2019-02-05T02:18:07.625Z,30.4
2019-02-05T02:18:56.370Z,30.5
2019-02-05T02:19:47.722Z,30.6
2019-02-05T02:20:37.258Z,30.7
2019-02-05T02:21:27.257Z,30.8
2019-02-05T02:22:17.665Z,30.9
2019-02-05T02:23:08.023Z,31
2019-02-05T02:24:00.485Z,31.1
2019-02-05T02:24:48.175Z,31.3
2019-02-05T02:25:38.110Z,31.4
2019-02-05T02:26:27.662Z,31.5
2019-02-05T02:27:18.452Z,31.6
2019-02-05T02:28:07.757Z,31.8
2019-02-05T02:28:57.805Z,31.8
2019-02-05T02:29:48.820Z,31.9
2019-02-05T02:30:38.042Z,32.1
2019-02-05T02:31:28.097Z,32.2
2019-02-05T02:32:18.659Z,32.3
2019-02-05T02:33:11.100Z,32.4
2019-02-05T02:33:58.735Z,32.5
2019-02-05T02:34:48.299Z,32.6
2019-02-05T02:35:38.271Z,32.7
2019-02-05T02:36:28.688Z,32.8
2019-02-05T02:37:18.775Z,32.9
2019-02-05T02:38:08.914Z,33
2019-02-05T02:38:59.582Z,33.1
2019-02-05T02:39:48.607Z,33.3
2019-02-05T02:40:38.691Z,33.3
2019-02-05T02:41:28.060Z,33.4
2019-02-05T02:42:21.634Z,33.6
2019-02-05T02:43:08.365Z,33.7
2019-02-05T02:43:59.439Z,33.8
2019-02-05T02:44:47.628Z,33.9
2019-02-05T02:45:39.276Z,34
2019-02-05T02:46:28.564Z,34.1
2019-02-05T02:47:19.188Z,34.3
2019-02-05T02:48:09.519Z,34.3
2019-02-05T02:49:00.113Z,34.4
2019-02-05T02:49:49.744Z,34.6
2019-02-05T02:50:40.078Z,34.6
2019-02-05T02:51:31.703Z,34.8
2019-02-05T02:52:20.128Z,34.9
2019-02-05T02:53:09.650Z,34.9
2019-02-05T02:54:00.020Z,35.1
2019-02-05T02:54:50.343Z,35.2
2019-02-05T02:55:40.489Z,35.3
2019-02-05T02:56:29.699Z,35.4
2019-02-05T02:57:20.923Z,35.5
2019-02-05T02:58:13.367Z,35.6
2019-02-05T02:59:00.075Z,35.8
2019-02-05T02:59:49.330Z,35.9
2019-02-05T03:00:41.790Z,35.9
2019-02-05T03:01:30.085Z,36.1
2019-02-05T03:02:20.398Z,36.2
2019-02-05T03:03:10.835Z,36.3
2019-02-05T03:04:00.790Z,36.4
2019-02-05T03:04:50.152Z,36.5
2019-02-05T03:08:22.199Z,36.9
2019-02-05T03:09:12.478Z,37
2019-02-05T03:10:04.255Z,37.1
2019-02-05T03:10:52.620Z,37.2
2019-02-05T03:11:42.637Z,37.3
2019-02-05T03:12:32.470Z,37.4
2019-02-05T03:13:24.609Z,37.5
2019-02-05T03:14:12.982Z,37.6
2019-02-05T03:15:03.354Z,37.7
2019-02-05T03:15:53.835Z,37.8
2019-02-05T03:16:43.883Z,37.9
2019-02-05T03:17:32.814Z,38
2019-02-05T03:18:22.921Z,38.1
2019-02-05T03:19:15.647Z,38.3
2019-02-05T03:20:03.628Z,38.4
2019-02-05T03:20:53.331Z,38.5
2019-02-05T03:21:43.636Z,38.6
2019-02-05T03:22:33.237Z,38.7
2019-02-05T03:23:23.542Z,38.8
2019-02-05T03:24:13.934Z,38.9
2019-02-05T03:25:05.694Z,39
2019-02-05T03:25:53.471Z,39.1
2019-02-05T03:26:43.883Z,39.2
2019-02-05T03:27:33.983Z,39.3
2019-02-05T03:28:23.839Z,39.3
2019-02-05T03:29:13.925Z,39.4
2019-02-05T03:30:03.847Z,39.4
2019-02-05T03:30:59.177Z,39.4
2019-02-05T03:31:44.504Z,39.5
2019-02-05T03:32:34.357Z,39.6
2019-02-05T03:33:24.982Z,39.6
2019-02-05T03:34:14.229Z,39.6
2019-02-05T03:35:05.326Z,39.6
2019-02-05T03:35:54.678Z,39.6
2019-02-05T03:36:45.691Z,39.6
2019-02-05T03:37:34.074Z,39.6
2019-02-05T03:38:24.256Z,39.7
2019-02-05T03:39:14.600Z,39.7
2019-02-05T03:40:05.890Z,39.7
2019-02-05T03:40:54.877Z,39.7
2019-02-05T03:41:44.806Z,39.7
2019-02-05T03:42:35.564Z,39.7
2019-02-05T03:43:24.385Z,39.7
2019-02-05T03:44:15.090Z,39.7
2019-02-05T03:45:04.896Z,39.7
2019-02-05T03:45:57.328Z,39.7
2019-02-05T03:46:44.837Z,39.7
2019-02-05T03:47:34.897Z,39.7
2019-02-05T03:48:25.487Z,39.7
2019-02-05T03:49:15.149Z,39.7
2019-02-05T03:50:05.784Z,39.7
2019-02-05T03:50:55.572Z,39.7
2019-02-05T03:51:47.562Z,39.7
2019-02-05T03:52:35.654Z,39.7
2019-02-05T03:53:25.077Z,39.7
2019-02-05T03:54:16.037Z,39.7
2019-02-05T03:55:05.662Z,39.7
2019-02-05T03:55:55.826Z,39.7
2019-02-05T03:56:45.839Z,39.7
2019-02-05T03:59:36.652Z,39.7
2019-02-05T03:59:50.166Z,39.7
2019-02-05T04:00:37.800Z,39.7
2019-02-05T04:01:27.917Z,39.7
2019-02-05T04:02:17.981Z,39.7
2019-02-05T04:03:08.289Z,39.7
2019-02-05T04:03:58.334Z,39.7
2019-02-05T04:04:47.810Z,39.7
2019-02-05T04:05:38.970Z,39.6
2019-02-05T04:06:27.949Z,39.6
2019-02-05T04:07:17.986Z,39.6
2019-02-05T04:08:08.626Z,39.6
2019-02-05T04:09:00.364Z,39.6
2019-02-05T04:09:48.289Z,39.6
2019-02-05T04:10:38.498Z,39.6
2019-02-05T04:11:28.596Z,39.6
2019-02-05T04:12:17.846Z,39.6
2019-02-05T04:13:08.962Z,39.6
2019-02-05T04:13:58.743Z,39.6
2019-02-05T04:14:49.329Z,39.6
2019-02-05T04:15:39.146Z,39.6
2019-02-05T04:16:28.944Z,39.6
2019-02-05T04:17:18.689Z,39.7
2019-02-05T04:18:10.711Z,39.6
2019-02-05T04:18:58.798Z,39.7
2019-02-05T04:19:49.479Z,39.6
2019-02-05T04:20:39.208Z,39.6
2019-02-05T04:21:28.981Z,39.6
2019-02-05T04:22:19.586Z,39.6
2019-02-05T04:23:09.217Z,39.6
2019-02-05T04:24:00.986Z,39.6
2019-02-05T04:24:49.494Z,39.6
2019-02-05T04:25:39.713Z,39.6
2019-02-05T04:26:29.551Z,39.6
2019-02-05T04:27:20.996Z,39.6
2019-02-05T04:28:09.519Z,39.6
2019-02-05T04:29:00.123Z,39.6
2019-02-05T04:29:49.837Z,39.6
2019-02-05T04:30:39.770Z,39.6
2019-02-05T04:31:30.273Z,39.6
2019-02-05T04:32:20.057Z,39.6
2019-02-05T04:33:12.523Z,39.6
2019-02-05T04:34:00.172Z,39.6
2019-02-05T04:34:50.219Z,39.6
2019-02-05T04:35:40.543Z,39.6
2019-02-05T04:36:30.284Z,39.6
2019-02-05T04:37:20.378Z,39.6
2019-02-05T04:38:09.968Z,39.6
2019-02-05T04:39:00.363Z,39.6
2019-02-05T04:39:50.825Z,39.6
2019-02-05T04:40:40.927Z,39.6
2019-02-05T04:41:30.970Z,39.6
2019-02-05T04:42:23.623Z,39.6
2019-02-05T04:43:10.251Z,39.6
2019-02-05T04:44:00.294Z,39.6
2019-02-05T04:44:50.917Z,39.6
2019-02-05T04:45:41.343Z,39.6
2019-02-05T04:46:31.517Z,39.6
2019-02-05T04:47:21.074Z,39.6
2019-02-05T04:48:11.795Z,39.6
2019-02-05T04:49:01.187Z,39.6
2019-02-05T04:49:51.257Z,39.5
2019-02-05T04:50:41.065Z,39.5
2019-02-05T04:51:33.556Z,39.5
2019-02-05T04:52:21.228Z,39.6
2019-02-05T04:53:11.802Z,39.5
2019-02-05T04:54:01.839Z,39.5
2019-02-05T04:54:51.684Z,39.5
2019-02-05T04:55:41.391Z,39.5
2019-02-05T04:56:31.857Z,39.5
2019-02-05T04:57:23.057Z,39.5
2019-02-05T04:58:12.147Z,39.5
2019-02-05T04:59:01.594Z,39.4
2019-02-05T04:59:52.234Z,39.5
2019-02-05T05:00:43.686Z,39.4
2019-02-05T05:01:32.384Z,39.4
2019-02-05T05:02:22.531Z,39.4
2019-02-05T05:03:12.461Z,39.4
2019-02-05T05:04:02.809Z,39.4
2019-02-05T05:04:52.314Z,39.4
2019-02-05T05:05:42.684Z,39.4
2019-02-05T05:06:34.557Z,39.4
2019-02-05T05:07:22.503Z,39.4
2019-02-05T05:08:12.795Z,39.4
2019-02-05T05:09:03.398Z,39.4
2019-02-05T05:09:53.723Z,39.4
2019-02-05T05:10:42.437Z,39.4
2019-02-05T05:11:32.828Z,39.4
2019-02-05T05:12:22.751Z,39.4
2019-02-05T05:13:13.221Z,39.4
2019-02-05T05:14:03.258Z,39.4
2019-02-05T05:14:53.071Z,39.4
2019-02-05T05:15:45.633Z,39.4
2019-02-05T05:16:32.843Z,39.4
2019-02-05T05:17:22.992Z,39.4
2019-02-05T05:18:16.495Z,39.4
2019-02-05T05:19:04.108Z,39.4
2019-02-05T05:19:53.389Z,39.4
2019-02-05T05:20:43.671Z,39.4
2019-02-05T05:21:34.914Z,39.4
2019-02-05T05:22:23.947Z,39.4
2019-02-05T05:23:13.883Z,39.4
2019-02-05T05:24:04.230Z,39.4
2019-02-05T05:24:54.600Z,39.4
2019-02-05T05:25:44.552Z,39.4
2019-02-05T05:26:33.733Z,39.4
2019-02-05T05:27:24.790Z,39.3
2019-02-05T05:28:16.558Z,39.3
2019-02-05T05:29:04.335Z,39.3
2019-02-05T05:29:54.819Z,39.3
2019-02-05T05:30:46.726Z,39.3
2019-02-05T05:31:35.124Z,39.3
2019-02-05T05:32:24.414Z,39.3
2019-02-05T05:33:14.812Z,39.3
2019-02-05T05:34:05.171Z,39.3
2019-02-05T05:34:55.197Z,39.3
2019-02-05T05:35:50.141Z,39.3
2019-02-05T05:36:36.780Z,39.3
2019-02-05T05:37:24.992Z,39.3
2019-02-05T05:38:15.236Z,39.3
2019-02-05T05:39:05.189Z,39.3
2019-02-05T05:39:58.331Z,39.3
2019-02-05T05:40:45.613Z,39.3
2019-02-05T05:41:35.234Z,39.3
2019-02-05T05:42:25.324Z,39.3
2019-02-05T05:43:15.077Z,39.3
2019-02-05T05:44:05.768Z,39.3
2019-02-05T05:44:55.090Z,39.3
2019-02-05T05:45:48.361Z,39.3
2019-02-05T05:46:35.270Z,39.3
2019-02-05T05:47:25.733Z,39.3
2019-02-05T05:48:15.830Z,39.3
2019-02-05T05:49:06.179Z,39.3
2019-02-05T05:49:55.674Z,39.3
2019-02-05T05:50:46.355Z,39.3
2019-02-05T05:51:37.190Z,39.3
2019-02-05T05:52:26.161Z,39.3
2019-02-05T05:53:16.435Z,39.3
2019-02-05T05:54:06.195Z,39.3
2019-02-05T05:54:57.173Z,39.3
2019-02-05T05:55:45.819Z,39.3
2019-02-05T05:56:35.852Z,39.2
2019-02-05T05:57:26.652Z,39.3
2019-02-05T05:58:31.436Z,39.2
2019-02-05T05:59:06.447Z,39.2
2019-02-05T05:59:56.645Z,39.3
2019-02-05T06:00:49.796Z,39.3
2019-02-05T06:01:36.706Z,39.2
2019-02-05T06:02:26.565Z,39.2
2019-02-05T06:03:17.029Z,39.2
2019-02-05T06:04:06.966Z,39.2
2019-02-05T06:06:22.495Z,39.1
2019-02-05T06:07:11.659Z,39.1
2019-02-05T06:08:02.954Z,39.2
2019-02-05T06:08:55.072Z,39.1
2019-02-05T06:09:43.131Z,39.1
2019-02-05T06:10:32.350Z,39.1
2019-02-05T06:11:22.511Z,39.1
2019-02-05T06:12:12.022Z,39.1
2019-02-05T06:13:03.581Z,39.1
2019-02-05T06:13:53.519Z,39.1
2019-02-05T06:14:43.844Z,39.1
2019-02-05T06:15:36.514Z,39.1
2019-02-05T06:16:23.429Z,39.1
2019-02-05T06:17:13.189Z,39.1
2019-02-05T06:18:07.189Z,39.1
2019-02-05T06:18:53.932Z,39.1
2019-02-05T06:19:42.561Z,39.1
2019-02-05T06:20:33.262Z,39.1
2019-02-05T06:21:22.941Z,39
2019-02-05T06:22:13.901Z,39
2019-02-05T06:23:03.901Z,39
2019-02-05T06:23:56.917Z,39
2019-02-05T06:24:44.012Z,39
2019-02-05T06:25:33.576Z,39
2019-02-05T06:26:26.334Z,39
2019-02-05T06:27:13.935Z,39
2019-02-05T06:28:04.511Z,39
2019-02-05T06:28:54.353Z,39
2019-02-05T06:29:45.309Z,39
2019-02-05T06:30:34.402Z,38.9
2019-02-05T06:31:24.747Z,38.9
2019-02-05T06:32:14.366Z,38.9
2019-02-05T06:33:05.618Z,38.9
2019-02-05T06:33:54.643Z,38.9
2019-02-05T06:34:44.701Z,38.9
2019-02-05T06:35:34.571Z,38.9
2019-02-05T06:36:25.125Z,38.9
2019-02-05T06:37:14.914Z,38.9
2019-02-05T06:38:04.948Z,38.9
2019-02-05T06:38:56.776Z,38.9
2019-02-05T06:39:44.928Z,38.9
2019-02-05T06:40:35.470Z,38.9
2019-02-05T06:41:24.638Z,38.9
2019-02-05T06:42:15.565Z,38.9
2019-02-05T06:43:05.305Z,38.9
2019-02-05T06:43:54.742Z,38.9
2019-02-05T06:44:46.350Z,38.9
2019-02-05T06:45:35.452Z,38.9
2019-02-05T06:46:25.467Z,38.9
2019-02-05T06:47:15.012Z,38.9
2019-02-05T06:48:07.502Z,38.9
2019-02-05T06:48:55.374Z,38.9
2019-02-05T06:49:45.536Z,38.8
2019-02-05T06:50:35.799Z,38.9
2019-02-05T06:51:25.697Z,38.8
2019-02-05T06:52:15.888Z,38.8
2019-02-05T06:53:05.962Z,38.8
2019-02-05T06:53:57.964Z,38.8
2019-02-05T06:54:45.539Z,38.8
2019-02-05T06:55:35.673Z,38.8
2019-02-05T06:56:26.009Z,38.8
2019-02-05T06:57:15.694Z,38.8
2019-02-05T06:58:06.069Z,38.8
2019-02-05T06:58:55.502Z,38.8
2019-02-05T06:59:47.369Z,38.8
2019-02-05T07:00:35.372Z,38.8
2019-02-05T07:01:26.328Z,38.8
2019-02-05T07:02:15.764Z,38.8
2019-02-05T07:03:08.548Z,38.8
2019-02-05T07:03:56.703Z,38.8
2019-02-05T07:06:22.113Z,38.8
2019-02-05T07:07:11.903Z,38.8
2019-02-05T07:08:02.796Z,38.8
2019-02-05T07:08:54.416Z,38.7
2019-02-05T07:09:42.672Z,38.7
2019-02-05T07:10:33.037Z,38.7
2019-02-05T07:11:23.123Z,38.7
2019-02-05T07:12:13.080Z,38.7
2019-02-05T07:13:02.939Z,38.7
2019-02-05T07:13:52.932Z,38.7
2019-02-05T07:14:45.283Z,38.7
2019-02-05T07:15:33.326Z,38.6
2019-02-05T07:16:23.380Z,38.6
2019-02-05T07:17:12.848Z,38.7
2019-02-05T07:18:04.150Z,38.7
2019-02-05T07:18:52.978Z,38.6
2019-02-05T07:19:43.877Z,38.6
2019-02-05T07:20:34.240Z,38.6
2019-02-05T07:21:23.442Z,38.6
2019-02-05T07:22:14.153Z,38.6
2019-02-05T07:23:04.254Z,38.6
2019-02-05T07:23:55.332Z,38.6
2019-02-05T07:24:43.150Z,38.6
2019-02-05T07:25:34.024Z,38.6
2019-02-05T07:26:24.059Z,38.6
2019-02-05T07:27:14.142Z,38.6
2019-02-05T07:28:03.417Z,38.6
2019-02-05T07:29:07.343Z,38.6
2019-02-05T07:29:46.337Z,38.6
2019-02-05T07:30:34.037Z,38.6
2019-02-05T07:31:24.159Z,38.6
2019-02-05T07:32:14.827Z,38.6
2019-02-05T07:33:04.315Z,38.6
2019-02-05T07:33:54.615Z,38.6
2019-02-05T07:34:44.924Z,38.6
2019-02-05T07:35:36.051Z,38.5
2019-02-05T07:36:24.627Z,38.5
2019-02-05T07:37:14.941Z,38.5
2019-02-05T07:38:04.747Z,38.5
2019-02-05T07:38:53.701Z,38.5
2019-02-05T07:39:44.259Z,38.5
2019-02-05T07:40:34.979Z,38.5
2019-02-05T07:41:26.514Z,38.5
2019-02-05T07:42:14.741Z,38.5
2019-02-05T07:43:04.352Z,38.5
2019-02-05T07:43:55.193Z,38.4
2019-02-05T07:44:46.363Z,38.4
2019-02-05T07:45:34.808Z,38.4
2019-02-05T07:46:25.202Z,38.4
2019-02-05T07:47:16.831Z,38.4
2019-02-05T07:48:05.124Z,38.4
2019-02-05T07:48:55.701Z,38.4
2019-02-05T07:49:46.021Z,38.4
2019-02-05T07:50:35.889Z,38.4
2019-02-05T07:51:26.291Z,38.4
2019-02-05T07:52:15.718Z,38.4
2019-02-05T07:53:05.773Z,38.4
2019-02-05T07:53:55.525Z,38.4
2019-02-05T07:54:46.070Z,38.4
2019-02-05T07:55:35.590Z,38.4
2019-02-05T07:56:28.053Z,38.4
2019-02-05T07:57:16.008Z,38.4
2019-02-05T07:58:06.360Z,38.4
2019-02-05T07:58:56.394Z,38.4
2019-02-05T07:59:49.462Z,38.4
2019-02-05T08:00:36.583Z,38.4
2019-02-05T08:01:26.390Z,38.4
2019-02-05T08:02:19.070Z,38.3
2019-02-05T08:03:06.503Z,38.3
2019-02-05T08:03:56.260Z,38.3
2019-02-05T08:04:46.650Z,38.3
2019-02-05T08:05:36.874Z,38.3
2019-02-05T08:06:26.729Z,38.3
2019-02-05T08:07:16.446Z,38.3
2019-02-05T08:08:22.049Z,38.3
2019-02-05T08:08:57.060Z,38.3
2019-02-05T08:09:46.867Z,38.3
2019-02-05T08:10:36.970Z,38.3
2019-02-05T08:11:27.151Z,38.3
2019-02-05T08:12:17.143Z,38.3
2019-02-05T08:13:07.467Z,38.3
2019-02-05T08:13:58.083Z,38.3
2019-02-05T08:14:47.306Z,38.3
2019-02-05T08:15:37.319Z,38.3
2019-02-05T08:16:27.333Z,38.3
2019-02-05T08:17:18.036Z,38.3
2019-02-05T08:18:07.484Z,38.3
2019-02-05T08:18:57.496Z,38.3
2019-02-05T08:19:50.111Z,38.3
2019-02-05T08:20:38.016Z,38.3
2019-02-05T08:21:27.571Z,38.3
2019-02-05T08:22:17.819Z,38.2
2019-02-05T08:23:07.626Z,38.2
2019-02-05T08:23:57.851Z,38.2
2019-02-05T08:24:48.431Z,38.2
2019-02-05T08:25:40.279Z,38.2
2019-02-05T08:26:28.331Z,38.2
2019-02-05T08:27:17.361Z,38.2
2019-02-05T08:28:08.621Z,38.2
2019-02-05T08:28:58.738Z,38.2
2019-02-05T08:29:47.688Z,38.2
2019-02-05T08:30:38.077Z,38.1
2019-02-05T08:31:29.030Z,38.1
2019-02-05T08:32:19.022Z,38.2
2019-02-05T08:33:08.032Z,38.2
2019-02-05T08:33:58.295Z,38.1
2019-02-05T08:34:51.872Z,38.1
2019-02-05T08:35:38.392Z,38.1
2019-02-05T08:36:29.017Z,38.1
2019-02-05T08:37:19.443Z,38.1
2019-02-05T08:38:08.648Z,38.1
2019-02-05T08:38:59.447Z,38.1
2019-02-05T08:39:47.630Z,38.1
2019-02-05T08:40:41.887Z,38.1
2019-02-05T08:41:28.030Z,38.1
2019-02-05T08:42:18.917Z,38.1
2019-02-05T08:43:08.919Z,38.1
2019-02-05T08:43:59.785Z,38.1
2019-02-05T08:44:49.050Z,38.1
2019-02-05T08:45:39.536Z,38.1
2019-02-05T08:46:30.288Z,38.1
2019-02-05T08:47:19.205Z,38.1
2019-02-05T08:48:09.542Z,38.1
2019-02-05T08:48:59.896Z,38.1
2019-02-05T08:49:51.224Z,38.1
2019-02-05T08:50:39.859Z,38.1
2019-02-05T08:51:28.931Z,38.1
2019-02-05T08:52:20.371Z,38.1
2019-02-05T08:53:09.423Z,38
2019-02-05T08:54:00.202Z,38.1
2019-02-05T08:54:50.017Z,38
2019-02-05T08:55:42.232Z,38
2019-02-05T08:56:30.455Z,38
2019-02-05T08:57:20.464Z,38
2019-02-05T08:58:10.096Z,38
2019-02-05T08:59:00.557Z,38
2019-02-05T08:59:50.771Z,38
2019-02-05T09:00:41.127Z,38
2019-02-05T09:01:33.258Z,38
2019-02-05T09:02:20.011Z,37.9
2019-02-05T09:03:10.884Z,37.9
2019-02-05T09:04:00.413Z,37.9
2019-02-05T09:04:50.704Z,37.9
2019-02-05T09:05:40.888Z,37.9
2019-02-05T09:06:31.068Z,37.9
2019-02-05T09:07:22.546Z,37.9
2019-02-05T09:08:11.353Z,37.9
2019-02-05T09:09:01.255Z,37.9
2019-02-05T09:09:51.335Z,37.9
2019-02-05T09:10:41.520Z,37.9
2019-02-05T09:11:30.988Z,37.9
2019-02-05T09:12:24.600Z,37.9
2019-02-05T09:13:11.565Z,37.9
2019-02-05T09:14:15.854Z,37.9
2019-02-05T09:14:51.215Z,37.9
2019-02-05T09:15:41.528Z,37.9
2019-02-05T09:16:34.609Z,37.9
2019-02-05T09:17:24.084Z,37.9
2019-02-05T09:18:10.886Z,37.9
2019-02-05T09:19:02.350Z,37.9
2019-02-05T09:19:51.750Z,37.9
2019-02-05T09:20:40.996Z,37.9
2019-02-05T09:21:32.139Z,37.9
2019-02-05T09:22:23.547Z,37.8
2019-02-05T09:23:15.427Z,37.8
2019-02-05T09:24:01.783Z,37.8
2019-02-05T09:24:52.167Z,37.8
2019-02-05T09:25:45.850Z,37.8
2019-02-05T09:26:32.186Z,37.8
2019-02-05T09:27:22.904Z,37.8
2019-02-05T09:28:12.929Z,37.8
2019-02-05T09:29:02.957Z,37.8
2019-02-05T09:29:52.707Z,37.8
2019-02-05T09:30:43.099Z,37.8
2019-02-05T09:31:35.129Z,37.8
2019-02-05T09:32:22.594Z,37.8
2019-02-05T09:33:13.009Z,37.8
2019-02-05T09:34:02.839Z,37.8
2019-02-05T09:34:53.431Z,37.8
2019-02-05T09:35:42.889Z,37.8
2019-02-05T09:36:32.444Z,37.8
2019-02-05T09:37:24.951Z,37.8
2019-02-05T09:38:29.620Z,37.8
2019-02-05T09:39:01.171Z,37.8
2019-02-05T09:39:53.706Z,37.8
2019-02-05T09:40:43.010Z,37.8
2019-02-05T09:41:33.041Z,37.8
2019-02-05T09:42:22.640Z,37.8
2019-02-05T09:43:15.048Z,37.7
2019-02-05T09:44:03.151Z,37.7
2019-02-05T09:44:53.895Z,37.7
2019-02-05T09:45:43.846Z,37.7
2019-02-05T09:46:35.463Z,37.7
2019-02-05T09:47:23.986Z,37.7
2019-02-05T09:48:13.890Z,37.7
2019-02-05T09:49:18.275Z,37.7
2019-02-05T09:49:53.843Z,37.7
2019-02-05T09:50:51.435Z,37.7
2019-02-05T09:51:34.503Z,37.7
2019-02-05T09:52:26.935Z,37.7
2019-02-05T09:53:14.734Z,37.6
2019-02-05T09:54:04.167Z,37.6
2019-02-05T09:54:53.873Z,37.6
2019-02-05T09:55:44.563Z,37.6
2019-02-05T09:56:34.615Z,37.6
2019-02-05T09:57:25.070Z,37.6
2019-02-05T09:58:15.741Z,37.6
2019-02-05T09:59:04.750Z,37.6
2019-02-05T09:59:54.025Z,37.6
2019-02-05T10:00:44.782Z,37.6
2019-02-05T10:01:33.862Z,37.6
2019-02-05T10:02:25.497Z,37.6
2019-02-05T10:03:15.441Z,37.6
2019-02-05T10:04:05.712Z,37.6
2019-02-05T10:04:55.217Z,37.6
2019-02-05T10:07:36.881Z,37.6
2019-02-05T10:08:14.687Z,37.6
2019-02-05T10:09:18.299Z,37.6
2019-02-05T10:10:10.201Z,37.6
2019-02-05T10:10:45.748Z,37.6
2019-02-05T10:12:03.596Z,37.6
2019-02-05T10:12:32.799Z,37.6
2019-02-05T10:14:51.537Z,37.5
2019-02-05T10:15:40.388Z,37.5
2019-02-05T10:16:07.964Z,37.6
2019-02-05T10:17:11.524Z,37.5
2019-02-05T10:18:34.196Z,37.5
2019-02-05T10:18:51.609Z,37.5
2019-02-05T10:20:08.127Z,37.5
2019-02-05T10:20:43.996Z,37.5
2019-02-05T10:21:33.283Z,37.5
2019-02-05T10:23:00.423Z,37.5
2019-02-05T10:23:34.028Z,37.4
2019-02-05T10:24:10.778Z,37.5
2019-02-05T10:25:13.527Z,37.4
2019-02-05T10:26:25.762Z,37.4
2019-02-05T10:26:54.914Z,37.4
2019-02-05T10:27:44.231Z,37.4
2019-02-05T10:28:34.027Z,37.4
2019-02-05T10:29:26.235Z,37.4
2019-02-05T10:30:13.265Z,37.4
2019-02-05T10:31:03.898Z,37.4
2019-02-05T10:32:09.496Z,37.4
2019-02-05T10:32:44.588Z,23.3
2019-02-05T10:33:34.733Z,34
2019-02-05T10:34:37.330Z,47.9
2019-02-05T10:35:17.032Z,55.9
2019-02-05T10:36:07.855Z,55.5
2019-02-05T10:36:54.352Z,53.7
2019-02-05T10:37:59.632Z,52.2
2019-02-05T10:38:34.983Z,50.5
2019-02-05T10:39:25.485Z,49.9
2019-02-05T10:40:15.185Z,49.4
2019-02-05T10:41:06.198Z,48.9
2019-02-05T10:41:55.170Z,48.4
2019-02-05T10:42:47.837Z,47.9
2019-02-05T10:43:35.629Z,47.5
2019-02-05T10:44:27.154Z,47.1
2019-02-05T10:45:47.546Z,46.7
2019-02-05T10:46:05.128Z,43.6
2019-02-05T10:46:55.357Z,43.9
2019-02-05T10:47:45.725Z,55.8
2019-02-05T10:48:36.214Z,62.7
2019-02-05T10:49:26.169Z,64.3
2019-02-05T10:50:19.052Z,62.2
2019-02-05T10:51:05.377Z,59.6
2019-02-05T10:51:54.674Z,58.5
2019-02-05T10:52:46.032Z,58.1
2019-02-05T10:53:36.101Z,58.3
2019-02-05T10:54:25.322Z,59.1
2019-02-05T10:55:16.200Z,60.1
2019-02-05T10:56:07.214Z,60.8
2019-02-05T10:56:56.121Z,61.1
2019-02-05T10:57:46.351Z,61.2
2019-02-05T10:58:35.611Z,61.2
2019-02-05T10:59:26.695Z,61.2
2019-02-05T11:00:16.336Z,61.3
2019-02-05T11:01:06.324Z,61.5
2019-02-05T11:01:57.528Z,61.6
2019-02-05T11:02:47.818Z,61.9
2019-02-05T11:03:36.719Z,62.1
2019-02-05T11:04:27.073Z,62.3
2019-02-05T11:05:18.475Z,62.4
2019-02-05T11:06:06.315Z,62.6
2019-02-05T11:06:57.298Z,62.6
2019-02-05T11:07:47.239Z,62.8
2019-02-05T11:08:52.229Z,62.9
2019-02-05T11:09:27.080Z,62.9
2019-02-05T11:10:17.469Z,63
2019-02-05T11:11:09.588Z,63
2019-02-05T11:11:57.705Z,63
2019-02-05T11:12:47.395Z,63
2019-02-05T11:13:37.700Z,63
2019-02-05T11:14:27.363Z,63.1
2019-02-05T11:15:17.532Z,63.1
2019-02-05T11:16:08.530Z,63.1
2019-02-05T11:16:58.310Z,63.2
2019-02-05T11:17:47.175Z,63.2
2019-02-05T11:18:38.077Z,63.2